sensor_id;sensor_type;location;lat;lon;timestamp;P1;durP1;ratioP1;P2;durP2;ratioP2
71196;SDS011;58918;51.652;4.864;2022-12-18T00:02:15;11.77;;;5.13;;
71196;SDS011;58918;51.652;4.864;2022-12-18T00:04:43;11.88;;;5.45;;
71196;SDS011;58918;51.652;4.864;2022-12-18T00:07:10;10.32;;;4.85;;
71196;SDS011;58918;51.652;4.864;2022-12-18T00:09:37;14.23;;;5.78;;
71196;SDS011;58918;51.652;4.864;2022-12-18T00:12:06;12.30;;;5.53;;
71196;SDS011;58918;51.652;4.864;2022-12-18T00:14:40;11.27;;;5.63;;
71196;SDS011;58918;51.652;4.864;2022-12-18T00:17:08;12.00;;;5.03;;
71196;SDS011;58918;51.652;4.864;2022-12-18T00:19:35;11.00;;;5.00;;
71196;SDS011;58918;51.652;4.864;2022-12-18T00:22:02;11.40;;;5.03;;
71196;SDS011;58918;51.652;4.864;2022-12-18T00:24:29;11.15;;;5.38;;
71196;SDS011;58918;51.652;4.864;2022-12-18T00:26:57;10.63;;;5.05;;
71196;SDS011;58918;51.652;4.864;2022-12-18T00:29:24;12.52;;;5.13;;
71196;SDS011;58918;51.652;4.864;2022-12-18T00:31:51;11.98;;;5.38;;
71196;SDS011;58918;51.652;4.864;2022-12-18T00:34:18;10.52;;;5.05;;
71196;SDS011;58918;51.652;4.864;2022-12-18T00:36:46;10.85;;;4.80;;
71196;SDS011;58918;51.652;4.864;2022-12-18T00:39:14;11.70;;;5.20;;
71196;SDS011;58918;51.652;4.864;2022-12-18T00:41:41;11.13;;;4.70;;
71196;SDS011;58918;51.652;4.864;2022-12-18T00:44:27;11.85;;;5.03;;
71196;SDS011;58918;51.652;4.864;2022-12-18T00:46:54;11.40;;;4.97;;
71196;SDS011;58918;51.652;4.864;2022-12-18T00:49:21;11.15;;;4.97;;
71196;SDS011;58918;51.652;4.864;2022-12-18T00:51:48;10.18;;;5.35;;
71196;SDS011;58918;51.652;4.864;2022-12-18T00:54:16;11.73;;;5.00;;
71196;SDS011;58918;51.652;4.864;2022-12-18T00:56:43;11.52;;;4.93;;
71196;SDS011;58918;51.652;4.864;2022-12-18T00:59:15;10.73;;;4.95;;
71196;SDS011;58918;51.652;4.864;2022-12-18T01:01:42;10.90;;;5.40;;
71196;SDS011;58918;51.652;4.864;2022-12-18T01:04:09;10.85;;;5.05;;
71196;SDS011;58918;51.652;4.864;2022-12-18T01:06:36;13.27;;;5.60;;
71196;SDS011;58918;51.652;4.864;2022-12-18T01:09:05;12.45;;;6.28;;
71196;SDS011;58918;51.652;4.864;2022-12-18T01:11:33;12.65;;;5.63;;
71196;SDS011;58918;51.652;4.864;2022-12-18T01:14:00;11.32;;;5.32;;
71196;SDS011;58918;51.652;4.864;2022-12-18T01:16:27;10.95;;;5.57;;
71196;SDS011;58918;51.652;4.864;2022-12-18T01:18:54;10.82;;;5.05;;
71196;SDS011;58918;51.652;4.864;2022-12-18T01:21:22;12.25;;;5.65;;
71196;SDS011;58918;51.652;4.864;2022-12-18T01:23:53;10.80;;;4.93;;
71196;SDS011;58918;51.652;4.864;2022-12-18T01:26:21;10.88;;;5.35;;
71196;SDS011;58918;51.652;4.864;2022-12-18T01:28:48;12.95;;;5.57;;
71196;SDS011;58918;51.652;4.864;2022-12-18T01:31:17;11.77;;;5.57;;
71196;SDS011;58918;51.652;4.864;2022-12-18T01:33:45;12.05;;;5.15;;
71196;SDS011;58918;51.652;4.864;2022-12-18T01:36:19;11.93;;;5.28;;
71196;SDS011;58918;51.652;4.864;2022-12-18T01:38:47;11.50;;;5.65;;
71196;SDS011;58918;51.652;4.864;2022-12-18T01:41:15;13.98;;;5.65;;
71196;SDS011;58918;51.652;4.864;2022-12-18T01:43:44;11.70;;;5.93;;
71196;SDS011;58918;51.652;4.864;2022-12-18T01:48:39;13.43;;;6.00;;
71196;SDS011;58918;51.652;4.864;2022-12-18T01:51:07;12.82;;;5.30;;
71196;SDS011;58918;51.652;4.864;2022-12-18T01:53:35;11.73;;;5.55;;
71196;SDS011;58918;51.652;4.864;2022-12-18T01:56:03;12.93;;;5.78;;
71196;SDS011;58918;51.652;4.864;2022-12-18T01:58:39;12.38;;;5.47;;
71196;SDS011;58918;51.652;4.864;2022-12-18T02:01:08;14.02;;;5.70;;
71196;SDS011;58918;51.652;4.864;2022-12-18T02:03:35;10.98;;;5.25;;
71196;SDS011;58918;51.652;4.864;2022-12-18T02:08:43;12.18;;;5.70;;
71196;SDS011;58918;51.652;4.864;2022-12-18T02:11:16;12.13;;;5.82;;
71196;SDS011;58918;51.652;4.864;2022-12-18T02:16:19;12.48;;;5.38;;
71196;SDS011;58918;51.652;4.864;2022-12-18T02:18:49;11.23;;;5.40;;
71196;SDS011;58918;51.652;4.864;2022-12-18T02:21:27;12.80;;;5.53;;
71196;SDS011;58918;51.652;4.864;2022-12-18T02:26:50;12.32;;;5.82;;
71196;SDS011;58918;51.652;4.864;2022-12-18T02:29:22;10.90;;;5.40;;
71196;SDS011;58918;51.652;4.864;2022-12-18T02:34:21;10.70;;;5.10;;
71196;SDS011;58918;51.652;4.864;2022-12-18T02:36:49;12.80;;;6.00;;
71196;SDS011;58918;51.652;4.864;2022-12-18T02:39:17;12.50;;;5.75;;
71196;SDS011;58918;51.652;4.864;2022-12-18T02:44:13;11.93;;;5.57;;
71196;SDS011;58918;51.652;4.864;2022-12-18T02:46:41;13.25;;;5.38;;
71196;SDS011;58918;51.652;4.864;2022-12-18T02:56:48;11.90;;;5.30;;
71196;SDS011;58918;51.652;4.864;2022-12-18T02:59:20;10.73;;;4.82;;
71196;SDS011;58918;51.652;4.864;2022-12-18T03:06:48;12.95;;;5.53;;
71196;SDS011;58918;51.652;4.864;2022-12-18T03:11:44;11.35;;;5.35;;
71196;SDS011;58918;51.652;4.864;2022-12-18T03:14:32;11.93;;;5.03;;
71196;SDS011;58918;51.652;4.864;2022-12-18T03:17:02;13.73;;;5.97;;
71196;SDS011;58918;51.652;4.864;2022-12-18T03:19:31;12.73;;;5.38;;
71196;SDS011;58918;51.652;4.864;2022-12-18T03:22:00;11.20;;;5.28;;
71196;SDS011;58918;51.652;4.864;2022-12-18T03:24:28;10.93;;;5.45;;
71196;SDS011;58918;51.652;4.864;2022-12-18T03:26:58;13.00;;;5.38;;
71196;SDS011;58918;51.652;4.864;2022-12-18T03:29:30;9.73;;;5.00;;
71196;SDS011;58918;51.652;4.864;2022-12-18T03:32:04;11.70;;;5.20;;
71196;SDS011;58918;51.652;4.864;2022-12-18T03:34:33;10.23;;;4.78;;
71196;SDS011;58918;51.652;4.864;2022-12-18T03:39:30;9.32;;;4.68;;
71196;SDS011;58918;51.652;4.864;2022-12-18T03:42:03;10.90;;;5.07;;
71196;SDS011;58918;51.652;4.864;2022-12-18T03:49:33;10.35;;;5.13;;
71196;SDS011;58918;51.652;4.864;2022-12-18T03:54:32;11.65;;;5.45;;
71196;SDS011;58918;51.652;4.864;2022-12-18T03:57:05;13.82;;;5.40;;
71196;SDS011;58918;51.652;4.864;2022-12-18T03:59:33;12.57;;;5.40;;
71196;SDS011;58918;51.652;4.864;2022-12-18T04:02:01;12.32;;;5.35;;
71196;SDS011;58918;51.652;4.864;2022-12-18T04:04:29;9.93;;;4.75;;
71196;SDS011;58918;51.652;4.864;2022-12-18T04:06:57;9.55;;;4.75;;
71196;SDS011;58918;51.652;4.864;2022-12-18T04:09:25;9.77;;;4.82;;
71196;SDS011;58918;51.652;4.864;2022-12-18T04:11:52;12.77;;;5.15;;
71196;SDS011;58918;51.652;4.864;2022-12-18T04:14:19;11.43;;;5.30;;
71196;SDS011;58918;51.652;4.864;2022-12-18T04:16:47;10.20;;;4.97;;
71196;SDS011;58918;51.652;4.864;2022-12-18T04:19:14;11.98;;;4.95;;
71196;SDS011;58918;51.652;4.864;2022-12-18T04:21:41;11.20;;;4.82;;
71196;SDS011;58918;51.652;4.864;2022-12-18T04:24:08;11.23;;;4.93;;
71196;SDS011;58918;51.652;4.864;2022-12-18T04:26:35;10.25;;;4.57;;
71196;SDS011;58918;51.652;4.864;2022-12-18T04:29:02;10.18;;;4.55;;
71196;SDS011;58918;51.652;4.864;2022-12-18T04:31:29;10.55;;;5.18;;
71196;SDS011;58918;51.652;4.864;2022-12-18T04:33:57;10.02;;;4.68;;
71196;SDS011;58918;51.652;4.864;2022-12-18T04:36:24;9.15;;;4.75;;
71196;SDS011;58918;51.652;4.864;2022-12-18T04:38:51;9.55;;;4.68;;
71196;SDS011;58918;51.652;4.864;2022-12-18T04:41:18;9.23;;;4.85;;
71196;SDS011;58918;51.652;4.864;2022-12-18T04:43:45;9.85;;;4.50;;
71196;SDS011;58918;51.652;4.864;2022-12-18T04:46:12;11.10;;;4.63;;
71196;SDS011;58918;51.652;4.864;2022-12-18T04:48:39;10.10;;;4.65;;
71196;SDS011;58918;51.652;4.864;2022-12-18T04:51:06;10.88;;;4.13;;
71196;SDS011;58918;51.652;4.864;2022-12-18T04:53:34;12.10;;;5.32;;
71196;SDS011;58918;51.652;4.864;2022-12-18T04:56:11;11.02;;;5.13;;
71196;SDS011;58918;51.652;4.864;2022-12-18T04:58:39;10.02;;;4.47;;
71196;SDS011;58918;51.652;4.864;2022-12-18T05:01:07;9.70;;;4.60;;
71196;SDS011;58918;51.652;4.864;2022-12-18T05:03:35;9.93;;;4.55;;
71196;SDS011;58918;51.652;4.864;2022-12-18T05:06:03;9.75;;;4.40;;
71196;SDS011;58918;51.652;4.864;2022-12-18T05:08:31;9.45;;;4.70;;
71196;SDS011;58918;51.652;4.864;2022-12-18T05:11:05;11.23;;;4.10;;
71196;SDS011;58918;51.652;4.864;2022-12-18T05:13:33;9.82;;;5.25;;
71196;SDS011;58918;51.652;4.864;2022-12-18T05:16:00;10.15;;;4.45;;
71196;SDS011;58918;51.652;4.864;2022-12-18T05:18:29;9.98;;;3.80;;
71196;SDS011;58918;51.652;4.864;2022-12-18T05:20:56;10.20;;;4.70;;
71196;SDS011;58918;51.652;4.864;2022-12-18T05:23:24;11.30;;;4.68;;
71196;SDS011;58918;51.652;4.864;2022-12-18T05:25:52;9.25;;;4.18;;
71196;SDS011;58918;51.652;4.864;2022-12-18T05:28:19;10.35;;;4.75;;
71196;SDS011;58918;51.652;4.864;2022-12-18T05:30:50;11.43;;;4.50;;
71196;SDS011;58918;51.652;4.864;2022-12-18T05:33:18;14.80;;;4.45;;
71196;SDS011;58918;51.652;4.864;2022-12-18T05:35:49;8.73;;;4.03;;
71196;SDS011;58918;51.652;4.864;2022-12-18T05:38:17;10.02;;;4.00;;
71196;SDS011;58918;51.652;4.864;2022-12-18T05:40:44;8.80;;;4.05;;
71196;SDS011;58918;51.652;4.864;2022-12-18T05:43:12;10.93;;;4.28;;
71196;SDS011;58918;51.652;4.864;2022-12-18T05:45:46;7.93;;;3.90;;
71196;SDS011;58918;51.652;4.864;2022-12-18T05:48:13;8.95;;;4.18;;
71196;SDS011;58918;51.652;4.864;2022-12-18T05:50:41;7.65;;;3.90;;
71196;SDS011;58918;51.652;4.864;2022-12-18T05:53:08;9.95;;;4.07;;
71196;SDS011;58918;51.652;4.864;2022-12-18T05:55:37;8.63;;;3.95;;
71196;SDS011;58918;51.652;4.864;2022-12-18T05:58:04;8.50;;;3.95;;
71196;SDS011;58918;51.652;4.864;2022-12-18T06:00:32;8.90;;;4.00;;
71196;SDS011;58918;51.652;4.864;2022-12-18T06:03:01;10.95;;;4.63;;
71196;SDS011;58918;51.652;4.864;2022-12-18T06:05:28;8.35;;;4.20;;
71196;SDS011;58918;51.652;4.864;2022-12-18T06:07:55;9.05;;;3.88;;
71196;SDS011;58918;51.652;4.864;2022-12-18T06:10:22;8.02;;;4.10;;
71196;SDS011;58918;51.652;4.864;2022-12-18T06:12:50;8.93;;;4.38;;
71196;SDS011;58918;51.652;4.864;2022-12-18T06:15:17;6.40;;;3.50;;
71196;SDS011;58918;51.652;4.864;2022-12-18T06:17:45;8.15;;;3.78;;
71196;SDS011;58918;51.652;4.864;2022-12-18T06:20:12;7.82;;;3.80;;
71196;SDS011;58918;51.652;4.864;2022-12-18T06:22:40;7.53;;;3.50;;
71196;SDS011;58918;51.652;4.864;2022-12-18T06:25:07;7.70;;;3.80;;
71196;SDS011;58918;51.652;4.864;2022-12-18T06:27:35;8.05;;;3.78;;
71196;SDS011;58918;51.652;4.864;2022-12-18T06:30:02;7.45;;;3.63;;
71196;SDS011;58918;51.652;4.864;2022-12-18T06:32:30;10.50;;;4.28;;
71196;SDS011;58918;51.652;4.864;2022-12-18T06:34:57;6.95;;;3.42;;
71196;SDS011;58918;51.652;4.864;2022-12-18T06:37:24;7.95;;;3.42;;
71196;SDS011;58918;51.652;4.864;2022-12-18T06:39:52;9.90;;;3.83;;
71196;SDS011;58918;51.652;4.864;2022-12-18T06:42:23;8.43;;;4.05;;
71196;SDS011;58918;51.652;4.864;2022-12-18T06:44:50;8.15;;;3.35;;
71196;SDS011;58918;51.652;4.864;2022-12-18T06:47:18;7.72;;;3.60;;
71196;SDS011;58918;51.652;4.864;2022-12-18T06:49:45;8.05;;;4.03;;
71196;SDS011;58918;51.652;4.864;2022-12-18T06:52:12;7.68;;;4.00;;
71196;SDS011;58918;51.652;4.864;2022-12-18T06:54:39;6.95;;;3.20;;
71196;SDS011;58918;51.652;4.864;2022-12-18T06:57:06;13.07;;;3.47;;
71196;SDS011;58918;51.652;4.864;2022-12-18T06:59:33;19.48;;;3.67;;
71196;SDS011;58918;51.652;4.864;2022-12-18T07:02:00;6.45;;;3.50;;
71196;SDS011;58918;51.652;4.864;2022-12-18T07:04:28;10.07;;;3.90;;
71196;SDS011;58918;51.652;4.864;2022-12-18T07:06:56;7.90;;;3.85;;
71196;SDS011;58918;51.652;4.864;2022-12-18T07:09:23;8.68;;;3.50;;
71196;SDS011;58918;51.652;4.864;2022-12-18T07:11:51;7.80;;;3.67;;
71196;SDS011;58918;51.652;4.864;2022-12-18T07:14:19;7.45;;;3.72;;
71196;SDS011;58918;51.652;4.864;2022-12-18T07:16:46;8.40;;;3.10;;
71196;SDS011;58918;51.652;4.864;2022-12-18T07:19:14;6.82;;;3.35;;
71196;SDS011;58918;51.652;4.864;2022-12-18T07:21:42;5.70;;;3.00;;
71196;SDS011;58918;51.652;4.864;2022-12-18T07:24:09;9.18;;;3.92;;
71196;SDS011;58918;51.652;4.864;2022-12-18T07:26:36;9.40;;;3.92;;
71196;SDS011;58918;51.652;4.864;2022-12-18T07:29:03;8.13;;;4.10;;
71196;SDS011;58918;51.652;4.864;2022-12-18T07:31:30;10.07;;;3.67;;
71196;SDS011;58918;51.652;4.864;2022-12-18T07:33:57;8.13;;;3.72;;
71196;SDS011;58918;51.652;4.864;2022-12-18T07:36:25;8.25;;;3.20;;
71196;SDS011;58918;51.652;4.864;2022-12-18T07:38:52;10.65;;;3.63;;
71196;SDS011;58918;51.652;4.864;2022-12-18T07:41:19;9.43;;;3.78;;
71196;SDS011;58918;51.652;4.864;2022-12-18T07:43:46;8.93;;;3.95;;
71196;SDS011;58918;51.652;4.864;2022-12-18T07:46:14;8.43;;;3.60;;
71196;SDS011;58918;51.652;4.864;2022-12-18T07:48:42;9.32;;;3.80;;
71196;SDS011;58918;51.652;4.864;2022-12-18T07:51:15;7.53;;;3.40;;
71196;SDS011;58918;51.652;4.864;2022-12-18T07:53:43;9.98;;;3.80;;
71196;SDS011;58918;51.652;4.864;2022-12-18T07:56:11;8.80;;;3.60;;
71196;SDS011;58918;51.652;4.864;2022-12-18T07:58:56;10.23;;;3.25;;
71196;SDS011;58918;51.652;4.864;2022-12-18T08:01:24;7.25;;;3.45;;
71196;SDS011;58918;51.652;4.864;2022-12-18T08:03:51;8.77;;;3.55;;
71196;SDS011;58918;51.652;4.864;2022-12-18T08:06:18;5.90;;;3.17;;
71196;SDS011;58918;51.652;4.864;2022-12-18T08:08:50;11.23;;;3.67;;
71196;SDS011;58918;51.652;4.864;2022-12-18T08:11:17;7.78;;;3.40;;
71196;SDS011;58918;51.652;4.864;2022-12-18T08:13:44;7.90;;;3.10;;
71196;SDS011;58918;51.652;4.864;2022-12-18T08:16:12;7.97;;;3.80;;
71196;SDS011;58918;51.652;4.864;2022-12-18T08:18:39;6.88;;;3.28;;
71196;SDS011;58918;51.652;4.864;2022-12-18T08:21:14;10.35;;;3.42;;
71196;SDS011;58918;51.652;4.864;2022-12-18T08:23:41;8.68;;;3.30;;
71196;SDS011;58918;51.652;4.864;2022-12-18T08:26:10;8.18;;;3.38;;
71196;SDS011;58918;51.652;4.864;2022-12-18T08:28:37;6.88;;;2.95;;
71196;SDS011;58918;51.652;4.864;2022-12-18T08:31:04;6.90;;;3.17;;
71196;SDS011;58918;51.652;4.864;2022-12-18T08:33:32;5.80;;;3.00;;
71196;SDS011;58918;51.652;4.864;2022-12-18T08:36:00;6.45;;;2.97;;
71196;SDS011;58918;51.652;4.864;2022-12-18T08:38:27;6.85;;;2.70;;
71196;SDS011;58918;51.652;4.864;2022-12-18T08:41:01;9.23;;;3.13;;
71196;SDS011;58918;51.652;4.864;2022-12-18T08:43:29;6.43;;;3.10;;
71196;SDS011;58918;51.652;4.864;2022-12-18T08:46:15;9.55;;;3.13;;
71196;SDS011;58918;51.652;4.864;2022-12-18T08:48:43;7.63;;;3.30;;
71196;SDS011;58918;51.652;4.864;2022-12-18T08:51:10;11.43;;;3.38;;
71196;SDS011;58918;51.652;4.864;2022-12-18T08:53:38;6.90;;;2.78;;
71196;SDS011;58918;51.652;4.864;2022-12-18T08:56:06;8.52;;;2.97;;
71196;SDS011;58918;51.652;4.864;2022-12-18T08:58:33;8.02;;;2.70;;
71196;SDS011;58918;51.652;4.864;2022-12-18T09:01:01;6.50;;;2.70;;
71196;SDS011;58918;51.652;4.864;2022-12-18T09:03:29;6.65;;;2.72;;
71196;SDS011;58918;51.652;4.864;2022-12-18T09:05:56;5.90;;;2.70;;
71196;SDS011;58918;51.652;4.864;2022-12-18T09:08:23;6.32;;;2.53;;
71196;SDS011;58918;51.652;4.864;2022-12-18T09:10:50;5.60;;;2.83;;
71196;SDS011;58918;51.652;4.864;2022-12-18T09:13:18;7.38;;;2.65;;
71196;SDS011;58918;51.652;4.864;2022-12-18T09:15:47;8.10;;;3.10;;
71196;SDS011;58918;51.652;4.864;2022-12-18T09:18:14;6.00;;;2.72;;
71196;SDS011;58918;51.652;4.864;2022-12-18T09:20:42;7.97;;;3.10;;
71196;SDS011;58918;51.652;4.864;2022-12-18T09:23:09;7.43;;;2.78;;
71196;SDS011;58918;51.652;4.864;2022-12-18T09:25:36;6.32;;;2.55;;
71196;SDS011;58918;51.652;4.864;2022-12-18T09:28:11;7.32;;;3.33;;
71196;SDS011;58918;51.652;4.864;2022-12-18T09:30:39;6.57;;;2.50;;
71196;SDS011;58918;51.652;4.864;2022-12-18T09:33:07;7.05;;;2.70;;
71196;SDS011;58918;51.652;4.864;2022-12-18T09:35:37;6.80;;;2.80;;
71196;SDS011;58918;51.652;4.864;2022-12-18T09:38:04;8.52;;;3.03;;
71196;SDS011;58918;51.652;4.864;2022-12-18T09:40:35;7.18;;;2.83;;
71196;SDS011;58918;51.652;4.864;2022-12-18T09:43:05;6.93;;;2.35;;
71196;SDS011;58918;51.652;4.864;2022-12-18T09:45:42;6.07;;;2.55;;
71196;SDS011;58918;51.652;4.864;2022-12-18T09:48:15;6.85;;;3.05;;
71196;SDS011;58918;51.652;4.864;2022-12-18T09:50:45;5.70;;;2.53;;
71196;SDS011;58918;51.652;4.864;2022-12-18T09:53:15;6.63;;;2.67;;
71196;SDS011;58918;51.652;4.864;2022-12-18T09:55:45;8.40;;;2.72;;
71196;SDS011;58918;51.652;4.864;2022-12-18T10:00:45;6.50;;;3.25;;
71196;SDS011;58918;51.652;4.864;2022-12-18T10:03:13;9.00;;;2.85;;
71196;SDS011;58918;51.652;4.864;2022-12-18T10:08:21;5.53;;;2.63;;
71196;SDS011;58918;51.652;4.864;2022-12-18T10:10:51;6.35;;;2.58;;
71196;SDS011;58918;51.652;4.864;2022-12-18T10:18:22;5.63;;;2.58;;
71196;SDS011;58918;51.652;4.864;2022-12-18T10:20:52;6.55;;;2.65;;
71196;SDS011;58918;51.652;4.864;2022-12-18T10:26:27;6.15;;;2.47;;
71196;SDS011;58918;51.652;4.864;2022-12-18T10:28:54;7.07;;;2.95;;
71196;SDS011;58918;51.652;4.864;2022-12-18T10:31:30;5.38;;;2.42;;
71196;SDS011;58918;51.652;4.864;2022-12-18T10:33:57;5.97;;;2.63;;
71196;SDS011;58918;51.652;4.864;2022-12-18T10:36:25;6.97;;;2.72;;
71196;SDS011;58918;51.652;4.864;2022-12-18T10:38:52;5.50;;;2.50;;
71196;SDS011;58918;51.652;4.864;2022-12-18T10:46:41;7.10;;;2.63;;
71196;SDS011;58918;51.652;4.864;2022-12-18T10:49:18;6.15;;;2.47;;
71196;SDS011;58918;51.652;4.864;2022-12-18T10:51:46;6.20;;;2.63;;
71196;SDS011;58918;51.652;4.864;2022-12-18T10:54:21;6.13;;;2.60;;
71196;SDS011;58918;51.652;4.864;2022-12-18T10:56:49;6.72;;;2.63;;
71196;SDS011;58918;51.652;4.864;2022-12-18T10:59:17;6.85;;;2.65;;
71196;SDS011;58918;51.652;4.864;2022-12-18T11:01:46;6.63;;;2.65;;
71196;SDS011;58918;51.652;4.864;2022-12-18T11:04:16;5.22;;;2.28;;
71196;SDS011;58918;51.652;4.864;2022-12-18T11:09:36;7.65;;;2.25;;
71196;SDS011;58918;51.652;4.864;2022-12-18T11:12:04;6.43;;;2.33;;
71196;SDS011;58918;51.652;4.864;2022-12-18T11:14:33;6.45;;;2.60;;
71196;SDS011;58918;51.652;4.864;2022-12-18T11:17:00;5.63;;;2.55;;
71196;SDS011;58918;51.652;4.864;2022-12-18T11:19:57;6.03;;;2.42;;
71196;SDS011;58918;51.652;4.864;2022-12-18T11:22:26;6.10;;;2.83;;
71196;SDS011;58918;51.652;4.864;2022-12-18T11:24:56;7.85;;;2.75;;
71196;SDS011;58918;51.652;4.864;2022-12-18T11:27:52;7.25;;;2.55;;
71196;SDS011;58918;51.652;4.864;2022-12-18T11:32:47;5.28;;;2.50;;
71196;SDS011;58918;51.652;4.864;2022-12-18T11:35:23;5.53;;;3.08;;
71196;SDS011;58918;51.652;4.864;2022-12-18T11:38:09;6.80;;;2.38;;
71196;SDS011;58918;51.652;4.864;2022-12-18T11:40:38;5.78;;;2.60;;
71196;SDS011;58918;51.652;4.864;2022-12-18T11:45:34;5.28;;;2.33;;
71196;SDS011;58918;51.652;4.864;2022-12-18T11:53:04;6.60;;;2.55;;
71196;SDS011;58918;51.652;4.864;2022-12-18T12:01:17;6.55;;;2.25;;
71196;SDS011;58918;51.652;4.864;2022-12-18T12:04:09;6.30;;;2.40;;
71196;SDS011;58918;51.652;4.864;2022-12-18T12:19:33;5.60;;;2.53;;
71196;SDS011;58918;51.652;4.864;2022-12-18T12:32:55;6.72;;;2.50;;
71196;SDS011;58918;51.652;4.864;2022-12-18T12:40:27;5.60;;;2.42;;
71196;SDS011;58918;51.652;4.864;2022-12-18T12:43:22;4.63;;;2.13;;
71196;SDS011;58918;51.652;4.864;2022-12-18T12:45:58;6.68;;;2.67;;
71196;SDS011;58918;51.652;4.864;2022-12-18T12:48:31;7.28;;;2.45;;
71196;SDS011;58918;51.652;4.864;2022-12-18T12:51:03;6.20;;;2.60;;
71196;SDS011;58918;51.652;4.864;2022-12-18T12:53:35;5.85;;;2.20;;
71196;SDS011;58918;51.652;4.864;2022-12-18T12:56:05;5.85;;;2.78;;
71196;SDS011;58918;51.652;4.864;2022-12-18T13:01:02;6.72;;;2.25;;
71196;SDS011;58918;51.652;4.864;2022-12-18T13:09:10;6.93;;;2.78;;
71196;SDS011;58918;51.652;4.864;2022-12-18T13:11:43;7.22;;;2.55;;
71196;SDS011;58918;51.652;4.864;2022-12-18T13:20:04;5.53;;;2.60;;
71196;SDS011;58918;51.652;4.864;2022-12-18T13:22:36;8.95;;;2.60;;
71196;SDS011;58918;51.652;4.864;2022-12-18T13:25:26;6.95;;;2.95;;
71196;SDS011;58918;51.652;4.864;2022-12-18T13:28:02;6.03;;;2.25;;
71196;SDS011;58918;51.652;4.864;2022-12-18T13:45:50;4.88;;;2.20;;
71196;SDS011;58918;51.652;4.864;2022-12-18T13:48:29;6.63;;;3.30;;
71196;SDS011;58918;51.652;4.864;2022-12-18T13:51:02;5.22;;;2.60;;
71196;SDS011;58918;51.652;4.864;2022-12-18T13:53:32;6.22;;;2.63;;
71196;SDS011;58918;51.652;4.864;2022-12-18T13:56:00;6.25;;;2.70;;
71196;SDS011;58918;51.652;4.864;2022-12-18T13:58:29;5.72;;;2.28;;
71196;SDS011;58918;51.652;4.864;2022-12-18T14:00:59;4.63;;;2.22;;
71196;SDS011;58918;51.652;4.864;2022-12-18T14:03:28;6.90;;;2.95;;
71196;SDS011;58918;51.652;4.864;2022-12-18T14:06:01;6.30;;;2.40;;
71196;SDS011;58918;51.652;4.864;2022-12-18T14:08:32;5.72;;;2.58;;
71196;SDS011;58918;51.652;4.864;2022-12-18T14:10:59;5.78;;;2.30;;
71196;SDS011;58918;51.652;4.864;2022-12-18T14:13:29;5.57;;;2.50;;
71196;SDS011;58918;51.652;4.864;2022-12-18T14:15:58;7.63;;;2.50;;
71196;SDS011;58918;51.652;4.864;2022-12-18T14:18:39;7.10;;;3.05;;
71196;SDS011;58918;51.652;4.864;2022-12-18T14:21:23;5.97;;;2.47;;
71196;SDS011;58918;51.652;4.864;2022-12-18T14:24:04;5.60;;;2.60;;
71196;SDS011;58918;51.652;4.864;2022-12-18T14:26:31;5.85;;;2.72;;
71196;SDS011;58918;51.652;4.864;2022-12-18T14:29:20;5.28;;;2.22;;
71196;SDS011;58918;51.652;4.864;2022-12-18T14:34:51;5.90;;;2.30;;
71196;SDS011;58918;51.652;4.864;2022-12-18T14:37:24;5.57;;;2.40;;
71196;SDS011;58918;51.652;4.864;2022-12-18T14:39:52;6.72;;;2.75;;
71196;SDS011;58918;51.652;4.864;2022-12-18T14:42:20;7.35;;;2.67;;
71196;SDS011;58918;51.652;4.864;2022-12-18T14:44:47;4.53;;;2.25;;
71196;SDS011;58918;51.652;4.864;2022-12-18T14:47:34;6.20;;;2.20;;
71196;SDS011;58918;51.652;4.864;2022-12-18T14:50:01;5.35;;;2.58;;
71196;SDS011;58918;51.652;4.864;2022-12-18T14:52:29;4.78;;;1.98;;
71196;SDS011;58918;51.652;4.864;2022-12-18T14:54:58;4.82;;;2.20;;
71196;SDS011;58918;51.652;4.864;2022-12-18T14:57:29;7.00;;;2.47;;
71196;SDS011;58918;51.652;4.864;2022-12-18T15:00:06;6.20;;;2.60;;
71196;SDS011;58918;51.652;4.864;2022-12-18T15:02:35;6.78;;;2.60;;
71196;SDS011;58918;51.652;4.864;2022-12-18T15:05:05;5.47;;;2.10;;
71196;SDS011;58918;51.652;4.864;2022-12-18T15:07:42;5.80;;;2.42;;
71196;SDS011;58918;51.652;4.864;2022-12-18T15:12:41;5.25;;;2.42;;
71196;SDS011;58918;51.652;4.864;2022-12-18T15:18:04;7.25;;;2.92;;
71196;SDS011;58918;51.652;4.864;2022-12-18T15:20:40;6.55;;;2.88;;
71196;SDS011;58918;51.652;4.864;2022-12-18T15:23:26;5.53;;;2.65;;
71196;SDS011;58918;51.652;4.864;2022-12-18T15:26:02;6.10;;;2.78;;
71196;SDS011;58918;51.652;4.864;2022-12-18T15:28:33;4.63;;;2.25;;
71196;SDS011;58918;51.652;4.864;2022-12-18T15:33:41;5.72;;;2.42;;
71196;SDS011;58918;51.652;4.864;2022-12-18T15:36:11;9.07;;;2.50;;
71196;SDS011;58918;51.652;4.864;2022-12-18T15:38:47;6.07;;;2.63;;
71196;SDS011;58918;51.652;4.864;2022-12-18T15:41:15;7.15;;;2.63;;
71196;SDS011;58918;51.652;4.864;2022-12-18T15:43:50;6.43;;;2.25;;
71196;SDS011;58918;51.652;4.864;2022-12-18T15:46:22;5.30;;;2.35;;
71196;SDS011;58918;51.652;4.864;2022-12-18T15:48:50;6.05;;;2.25;;
71196;SDS011;58918;51.652;4.864;2022-12-18T15:51:43;8.02;;;2.85;;
71196;SDS011;58918;51.652;4.864;2022-12-18T15:54:13;6.68;;;2.58;;
71196;SDS011;58918;51.652;4.864;2022-12-18T15:57:04;5.35;;;2.38;;
71196;SDS011;58918;51.652;4.864;2022-12-18T15:59:55;6.57;;;2.88;;
71196;SDS011;58918;51.652;4.864;2022-12-18T16:02:24;6.32;;;2.83;;
71196;SDS011;58918;51.652;4.864;2022-12-18T16:04:52;5.78;;;2.20;;
71196;SDS011;58918;51.652;4.864;2022-12-18T16:07:20;4.85;;;2.10;;
71196;SDS011;58918;51.652;4.864;2022-12-18T16:09:51;6.03;;;2.58;;
71196;SDS011;58918;51.652;4.864;2022-12-18T16:12:21;6.63;;;2.78;;
71196;SDS011;58918;51.652;4.864;2022-12-18T16:14:49;6.50;;;2.42;;
71196;SDS011;58918;51.652;4.864;2022-12-18T16:17:17;9.38;;;2.63;;
71196;SDS011;58918;51.652;4.864;2022-12-18T16:19:44;4.85;;;2.40;;
71196;SDS011;58918;51.652;4.864;2022-12-18T16:22:19;6.47;;;2.13;;
71196;SDS011;58918;51.652;4.864;2022-12-18T16:24:47;5.15;;;2.42;;
71196;SDS011;58918;51.652;4.864;2022-12-18T16:27:14;5.90;;;2.88;;
71196;SDS011;58918;51.652;4.864;2022-12-18T16:29:43;5.93;;;2.50;;
71196;SDS011;58918;51.652;4.864;2022-12-18T16:32:14;5.68;;;2.60;;
71196;SDS011;58918;51.652;4.864;2022-12-18T16:34:42;6.28;;;2.53;;
71196;SDS011;58918;51.652;4.864;2022-12-18T16:37:10;6.05;;;2.47;;
71196;SDS011;58918;51.652;4.864;2022-12-18T16:39:38;6.43;;;2.88;;
71196;SDS011;58918;51.652;4.864;2022-12-18T16:42:15;7.20;;;2.85;;
71196;SDS011;58918;51.652;4.864;2022-12-18T16:44:46;6.40;;;2.67;;
71196;SDS011;58918;51.652;4.864;2022-12-18T16:47:15;6.88;;;2.90;;
71196;SDS011;58918;51.652;4.864;2022-12-18T16:49:42;6.13;;;2.90;;
71196;SDS011;58918;51.652;4.864;2022-12-18T16:52:16;6.25;;;2.85;;
71196;SDS011;58918;51.652;4.864;2022-12-18T16:54:43;6.88;;;2.70;;
71196;SDS011;58918;51.652;4.864;2022-12-18T16:57:15;7.15;;;2.63;;
71196;SDS011;58918;51.652;4.864;2022-12-18T16:59:42;5.50;;;2.53;;
71196;SDS011;58918;51.652;4.864;2022-12-18T17:02:14;6.55;;;2.85;;
71196;SDS011;58918;51.652;4.864;2022-12-18T17:04:44;6.18;;;2.80;;
71196;SDS011;58918;51.652;4.864;2022-12-18T17:07:11;5.25;;;2.40;;
71196;SDS011;58918;51.652;4.864;2022-12-18T17:09:39;5.65;;;2.80;;
71196;SDS011;58918;51.652;4.864;2022-12-18T17:12:07;9.63;;;3.33;;
71196;SDS011;58918;51.652;4.864;2022-12-18T17:14:34;6.70;;;2.60;;
71196;SDS011;58918;51.652;4.864;2022-12-18T17:17:02;6.18;;;2.92;;
71196;SDS011;58918;51.652;4.864;2022-12-18T17:19:48;5.55;;;2.50;;
71196;SDS011;58918;51.652;4.864;2022-12-18T17:22:15;4.95;;;2.55;;
71196;SDS011;58918;51.652;4.864;2022-12-18T17:24:42;6.50;;;2.90;;
71196;SDS011;58918;51.652;4.864;2022-12-18T17:27:12;6.70;;;2.58;;